sensor_id;sensor_type;location;lat;lon;timestamp;P1;durP1;ratioP1;P2;durP2;ratioP2
15104;SDS011;7653;48.994;9.212;2023-05-10T00:02:06;3.23;;;0.63;;
15104;SDS011;7653;48.994;9.212;2023-05-10T00:04:32;0.50;;;0.50;;
15104;SDS011;7653;48.994;9.212;2023-05-10T00:06:58;2.10;;;0.50;;
15104;SDS011;7653;48.994;9.212;2023-05-10T00:09:23;0.70;;;0.70;;
15104;SDS011;7653;48.994;9.212;2023-05-10T00:11:49;0.40;;;0.40;;
15104;SDS011;7653;48.994;9.212;2023-05-10T00:14:15;1.13;;;0.70;;
15104;SDS011;7653;48.994;9.212;2023-05-10T00:16:41;0.80;;;0.50;;
15104;SDS011;7653;48.994;9.212;2023-05-10T00:19:06;0.53;;;0.53;;
15104;SDS011;7653;48.994;9.212;2023-05-10T00:21:32;1.13;;;0.60;;
15104;SDS011;7653;48.994;9.212;2023-05-10T00:23:58;0.60;;;0.60;;
15104;SDS011;7653;48.994;9.212;2023-05-10T00:26:24;0.50;;;0.50;;
15104;SDS011;7653;48.994;9.212;2023-05-10T00:28:50;0.60;;;0.50;;
15104;SDS011;7653;48.994;9.212;2023-05-10T00:31:16;1.80;;;0.50;;
15104;SDS011;7653;48.994;9.212;2023-05-10T00:33:41;2.33;;;0.77;;
15104;SDS011;7653;48.994;9.212;2023-05-10T00:36:07;1.37;;;0.60;;
15104;SDS011;7653;48.994;9.212;2023-05-10T00:38:33;1.07;;;0.50;;
15104;SDS011;7653;48.994;9.212;2023-05-10T00:40:59;0.73;;;0.70;;
15104;SDS011;7653;48.994;9.212;2023-05-10T00:43:24;0.67;;;0.60;;
15104;SDS011;7653;48.994;9.212;2023-05-10T00:45:50;0.60;;;0.50;;
15104;SDS011;7653;48.994;9.212;2023-05-10T00:48:16;1.07;;;0.60;;
15104;SDS011;7653;48.994;9.212;2023-05-10T00:50:42;0.43;;;0.43;;
15104;SDS011;7653;48.994;9.212;2023-05-10T00:53:08;1.50;;;0.60;;
15104;SDS011;7653;48.994;9.212;2023-05-10T00:55:34;1.93;;;0.50;;
15104;SDS011;7653;48.994;9.212;2023-05-10T00:58:00;2.10;;;0.60;;
15104;SDS011;7653;48.994;9.212;2023-05-10T01:00:26;0.83;;;0.60;;
15104;SDS011;7653;48.994;9.212;2023-05-10T01:02:53;0.50;;;0.50;;
15104;SDS011;7653;48.994;9.212;2023-05-10T01:05:19;2.97;;;0.60;;
15104;SDS011;7653;48.994;9.212;2023-05-10T01:07:45;2.10;;;0.60;;
15104;SDS011;7653;48.994;9.212;2023-05-10T01:10:10;0.70;;;0.70;;
15104;SDS011;7653;48.994;9.212;2023-05-10T01:12:37;0.60;;;0.60;;
15104;SDS011;7653;48.994;9.212;2023-05-10T01:15:06;1.07;;;0.63;;
15104;SDS011;7653;48.994;9.212;2023-05-10T01:17:33;0.60;;;0.60;;
15104;SDS011;7653;48.994;9.212;2023-05-10T01:20:02;0.97;;;0.47;;
15104;SDS011;7653;48.994;9.212;2023-05-10T01:22:39;0.63;;;0.63;;
15104;SDS011;7653;48.994;9.212;2023-05-10T01:31:18;0.77;;;0.77;;
15104;SDS011;7653;48.994;9.212;2023-05-10T01:36:39;0.80;;;0.80;;
15104;SDS011;7653;48.994;9.212;2023-05-10T01:44:18;0.90;;;0.90;;
15104;SDS011;7653;48.994;9.212;2023-05-10T01:47:13;0.70;;;0.70;;
15104;SDS011;7653;48.994;9.212;2023-05-10T01:49:55;0.93;;;0.93;;
15104;SDS011;7653;48.994;9.212;2023-05-10T01:52:26;1.10;;;0.83;;
15104;SDS011;7653;48.994;9.212;2023-05-10T01:55:11;1.83;;;1.03;;
15104;SDS011;7653;48.994;9.212;2023-05-10T01:57:41;1.63;;;0.90;;
15104;SDS011;7653;48.994;9.212;2023-05-10T02:00:09;3.70;;;1.17;;
15104;SDS011;7653;48.994;9.212;2023-05-10T02:02:37;0.70;;;0.70;;
15104;SDS011;7653;48.994;9.212;2023-05-10T02:05:07;1.30;;;0.70;;
15104;SDS011;7653;48.994;9.212;2023-05-10T02:07:34;1.37;;;1.27;;
15104;SDS011;7653;48.994;9.212;2023-05-10T02:10:05;1.23;;;1.20;;
15104;SDS011;7653;48.994;9.212;2023-05-10T02:12:36;1.20;;;1.10;;
15104;SDS011;7653;48.994;9.212;2023-05-10T02:15:04;1.33;;;1.23;;
15104;SDS011;7653;48.994;9.212;2023-05-10T02:17:32;1.33;;;1.20;;
15104;SDS011;7653;48.994;9.212;2023-05-10T02:19:59;3.20;;;1.40;;
15104;SDS011;7653;48.994;9.212;2023-05-10T02:22:27;1.00;;;1.00;;
15104;SDS011;7653;48.994;9.212;2023-05-10T02:24:57;1.30;;;1.20;;
15104;SDS011;7653;48.994;9.212;2023-05-10T02:27:24;4.97;;;1.30;;
15104;SDS011;7653;48.994;9.212;2023-05-10T02:29:52;2.40;;;1.07;;
15104;SDS011;7653;48.994;9.212;2023-05-10T02:32:19;3.37;;;1.20;;
15104;SDS011;7653;48.994;9.212;2023-05-10T02:34:46;4.77;;;1.20;;
15104;SDS011;7653;48.994;9.212;2023-05-10T02:37:16;1.20;;;1.10;;
15104;SDS011;7653;48.994;9.212;2023-05-10T02:39:46;1.50;;;1.20;;
15104;SDS011;7653;48.994;9.212;2023-05-10T02:42:21;2.73;;;1.20;;
15104;SDS011;7653;48.994;9.212;2023-05-10T02:44:50;1.20;;;1.20;;
15104;SDS011;7653;48.994;9.212;2023-05-10T02:47:18;1.90;;;1.10;;
15104;SDS011;7653;48.994;9.212;2023-05-10T02:49:44;1.30;;;1.20;;
15104;SDS011;7653;48.994;9.212;2023-05-10T02:52:10;1.03;;;1.03;;
15104;SDS011;7653;48.994;9.212;2023-05-10T02:54:45;1.47;;;1.37;;
15104;SDS011;7653;48.994;9.212;2023-05-10T02:57:16;2.50;;;1.40;;
15104;SDS011;7653;48.994;9.212;2023-05-10T02:59:45;3.27;;;1.20;;
15104;SDS011;7653;48.994;9.212;2023-05-10T03:02:13;1.23;;;1.20;;
15104;SDS011;7653;48.994;9.212;2023-05-10T03:04:39;2.07;;;1.20;;
15104;SDS011;7653;48.994;9.212;2023-05-10T03:07:05;2.17;;;1.30;;
15104;SDS011;7653;48.994;9.212;2023-05-10T03:09:31;3.13;;;1.50;;
15104;SDS011;7653;48.994;9.212;2023-05-10T03:12:09;1.50;;;1.40;;
15104;SDS011;7653;48.994;9.212;2023-05-10T03:17:14;2.83;;;1.40;;
15104;SDS011;7653;48.994;9.212;2023-05-10T03:19:56;2.90;;;1.70;;
15104;SDS011;7653;48.994;9.212;2023-05-10T03:22:29;1.90;;;1.80;;
15104;SDS011;7653;48.994;9.212;2023-05-10T03:24:59;2.00;;;1.80;;
15104;SDS011;7653;48.994;9.212;2023-05-10T03:27:27;3.00;;;1.80;;
15104;SDS011;7653;48.994;9.212;2023-05-10T03:29:56;2.67;;;2.03;;
15104;SDS011;7653;48.994;9.212;2023-05-10T03:32:22;2.73;;;2.10;;
15104;SDS011;7653;48.994;9.212;2023-05-10T03:34:48;2.20;;;2.07;;
15104;SDS011;7653;48.994;9.212;2023-05-10T03:37:14;2.50;;;2.30;;
15104;SDS011;7653;48.994;9.212;2023-05-10T03:39:40;3.30;;;2.93;;
15104;SDS011;7653;48.994;9.212;2023-05-10T03:42:05;4.47;;;2.40;;
15104;SDS011;7653;48.994;9.212;2023-05-10T03:44:31;5.43;;;2.50;;
15104;SDS011;7653;48.994;9.212;2023-05-10T03:46:59;2.70;;;2.50;;
15104;SDS011;7653;48.994;9.212;2023-05-10T03:49:24;2.40;;;2.20;;
15104;SDS011;7653;48.994;9.212;2023-05-10T03:51:50;2.90;;;2.60;;
15104;SDS011;7653;48.994;9.212;2023-05-10T03:54:16;3.87;;;2.57;;
15104;SDS011;7653;48.994;9.212;2023-05-10T03:56:41;3.30;;;3.00;;
15104;SDS011;7653;48.994;9.212;2023-05-10T03:59:07;3.30;;;3.00;;
15104;SDS011;7653;48.994;9.212;2023-05-10T04:01:34;2.83;;;2.60;;
15104;SDS011;7653;48.994;9.212;2023-05-10T04:03:59;3.00;;;2.70;;
15104;SDS011;7653;48.994;9.212;2023-05-10T04:06:25;3.43;;;2.80;;
15104;SDS011;7653;48.994;9.212;2023-05-10T04:08:51;3.00;;;2.70;;
15104;SDS011;7653;48.994;9.212;2023-05-10T04:11:17;3.83;;;3.43;;
15104;SDS011;7653;48.994;9.212;2023-05-10T04:13:42;3.60;;;3.07;;
15104;SDS011;7653;48.994;9.212;2023-05-10T04:16:08;3.70;;;3.23;;
15104;SDS011;7653;48.994;9.212;2023-05-10T04:18:34;3.30;;;3.03;;
15104;SDS011;7653;48.994;9.212;2023-05-10T04:21:00;4.33;;;3.67;;
15104;SDS011;7653;48.994;9.212;2023-05-10T04:23:29;7.67;;;3.77;;
15104;SDS011;7653;48.994;9.212;2023-05-10T04:26:01;4.17;;;3.60;;
15104;SDS011;7653;48.994;9.212;2023-05-10T04:28:27;4.73;;;4.03;;
15104;SDS011;7653;48.994;9.212;2023-05-10T04:30:53;4.97;;;3.73;;
15104;SDS011;7653;48.994;9.212;2023-05-10T04:33:18;4.40;;;3.50;;
15104;SDS011;7653;48.994;9.212;2023-05-10T04:35:44;4.20;;;3.80;;
15104;SDS011;7653;48.994;9.212;2023-05-10T04:38:10;4.83;;;3.50;;
15104;SDS011;7653;48.994;9.212;2023-05-10T04:40:35;4.33;;;3.50;;
15104;SDS011;7653;48.994;9.212;2023-05-10T04:43:01;3.90;;;3.50;;
15104;SDS011;7653;48.994;9.212;2023-05-10T04:45:26;3.43;;;3.13;;
15104;SDS011;7653;48.994;9.212;2023-05-10T04:47:52;2.50;;;2.30;;
15104;SDS011;7653;48.994;9.212;2023-05-10T04:50:18;3.17;;;2.93;;
15104;SDS011;7653;48.994;9.212;2023-05-10T04:52:44;3.50;;;2.93;;
15104;SDS011;7653;48.994;9.212;2023-05-10T04:55:09;2.87;;;2.67;;
15104;SDS011;7653;48.994;9.212;2023-05-10T04:57:35;5.33;;;2.80;;
15104;SDS011;7653;48.994;9.212;2023-05-10T05:00:01;2.80;;;2.60;;
15104;SDS011;7653;48.994;9.212;2023-05-10T05:02:27;2.87;;;2.67;;
15104;SDS011;7653;48.994;9.212;2023-05-10T05:04:52;3.20;;;2.43;;
15104;SDS011;7653;48.994;9.212;2023-05-10T05:07:20;3.07;;;2.50;;
15104;SDS011;7653;48.994;9.212;2023-05-10T05:09:46;2.50;;;2.07;;
15104;SDS011;7653;48.994;9.212;2023-05-10T05:12:11;2.27;;;2.10;;
15104;SDS011;7653;48.994;9.212;2023-05-10T05:14:39;3.00;;;2.10;;
15104;SDS011;7653;48.994;9.212;2023-05-10T05:17:05;4.03;;;1.37;;
15104;SDS011;7653;48.994;9.212;2023-05-10T05:19:31;2.03;;;1.50;;
15104;SDS011;7653;48.994;9.212;2023-05-10T05:21:56;2.13;;;1.93;;
15104;SDS011;7653;48.994;9.212;2023-05-10T05:24:22;2.27;;;1.83;;
15104;SDS011;7653;48.994;9.212;2023-05-10T05:26:48;3.60;;;2.40;;
15104;SDS011;7653;48.994;9.212;2023-05-10T05:29:13;2.60;;;2.40;;
15104;SDS011;7653;48.994;9.212;2023-05-10T05:31:39;3.57;;;2.40;;
15104;SDS011;7653;48.994;9.212;2023-05-10T05:34:05;2.60;;;2.33;;
15104;SDS011;7653;48.994;9.212;2023-05-10T05:36:30;1.93;;;1.60;;
15104;SDS011;7653;48.994;9.212;2023-05-10T05:38:56;2.60;;;2.23;;
15104;SDS011;7653;48.994;9.212;2023-05-10T05:41:22;3.67;;;2.60;;
15104;SDS011;7653;48.994;9.212;2023-05-10T05:43:49;3.70;;;2.57;;
15104;SDS011;7653;48.994;9.212;2023-05-10T05:46:15;3.87;;;2.60;;
15104;SDS011;7653;48.994;9.212;2023-05-10T05:48:41;3.23;;;2.27;;
15104;SDS011;7653;48.994;9.212;2023-05-10T05:51:06;3.07;;;2.57;;
15104;SDS011;7653;48.994;9.212;2023-05-10T05:53:32;2.97;;;2.17;;
15104;SDS011;7653;48.994;9.212;2023-05-10T05:55:58;2.40;;;2.20;;
15104;SDS011;7653;48.994;9.212;2023-05-10T05:58:24;2.87;;;2.43;;
15104;SDS011;7653;48.994;9.212;2023-05-10T06:00:50;2.73;;;2.47;;
15104;SDS011;7653;48.994;9.212;2023-05-10T06:03:17;3.33;;;2.80;;
15104;SDS011;7653;48.994;9.212;2023-05-10T06:05:43;5.50;;;3.00;;
15104;SDS011;7653;48.994;9.212;2023-05-10T06:08:09;5.40;;;2.87;;
15104;SDS011;7653;48.994;9.212;2023-05-10T06:10:34;3.63;;;3.10;;
15104;SDS011;7653;48.994;9.212;2023-05-10T06:13:00;4.43;;;2.93;;
15104;SDS011;7653;48.994;9.212;2023-05-10T06:15:26;6.83;;;5.30;;
15104;SDS011;7653;48.994;9.212;2023-05-10T06:17:52;2.00;;;1.80;;
15104;SDS011;7653;48.994;9.212;2023-05-10T06:20:18;2.77;;;2.43;;
15104;SDS011;7653;48.994;9.212;2023-05-10T06:22:43;4.23;;;3.00;;
15104;SDS011;7653;48.994;9.212;2023-05-10T06:25:09;2.80;;;2.60;;
15104;SDS011;7653;48.994;9.212;2023-05-10T06:27:36;3.83;;;2.47;;
15104;SDS011;7653;48.994;9.212;2023-05-10T06:30:02;2.57;;;2.37;;
15104;SDS011;7653;48.994;9.212;2023-05-10T06:32:27;3.10;;;2.50;;
15104;SDS011;7653;48.994;9.212;2023-05-10T06:34:53;4.30;;;2.70;;
15104;SDS011;7653;48.994;9.212;2023-05-10T06:37:19;2.73;;;2.53;;
15104;SDS011;7653;48.994;9.212;2023-05-10T06:39:45;2.97;;;2.37;;
15104;SDS011;7653;48.994;9.212;2023-05-10T06:42:10;2.83;;;2.50;;
15104;SDS011;7653;48.994;9.212;2023-05-10T06:44:36;3.17;;;2.57;;
15104;SDS011;7653;48.994;9.212;2023-05-10T06:47:02;3.33;;;1.97;;
15104;SDS011;7653;48.994;9.212;2023-05-10T06:49:27;3.33;;;2.20;;
15104;SDS011;7653;48.994;9.212;2023-05-10T06:51:53;2.97;;;1.90;;
15104;SDS011;7653;48.994;9.212;2023-05-10T06:54:20;3.30;;;2.33;;
15104;SDS011;7653;48.994;9.212;2023-05-10T06:56:46;2.20;;;2.00;;
15104;SDS011;7653;48.994;9.212;2023-05-10T06:59:11;2.30;;;2.00;;
15104;SDS011;7653;48.994;9.212;2023-05-10T07:01:38;2.73;;;2.23;;
15104;SDS011;7653;48.994;9.212;2023-05-10T07:04:04;1.83;;;1.70;;
15104;SDS011;7653;48.994;9.212;2023-05-10T07:06:30;3.13;;;2.07;;
15104;SDS011;7653;48.994;9.212;2023-05-10T07:08:56;2.37;;;1.80;;
15104;SDS011;7653;48.994;9.212;2023-05-10T07:11:22;2.80;;;1.90;;
15104;SDS011;7653;48.994;9.212;2023-05-10T07:13:47;3.07;;;1.90;;
15104;SDS011;7653;48.994;9.212;2023-05-10T07:16:13;1.83;;;1.73;;
15104;SDS011;7653;48.994;9.212;2023-05-10T07:18:38;2.07;;;1.87;;
15104;SDS011;7653;48.994;9.212;2023-05-10T07:21:04;1.57;;;1.47;;
15104;SDS011;7653;48.994;9.212;2023-05-10T07:23:30;2.17;;;1.93;;
15104;SDS011;7653;48.994;9.212;2023-05-10T07:25:55;2.10;;;1.80;;
15104;SDS011;7653;48.994;9.212;2023-05-10T07:28:22;1.93;;;1.67;;
15104;SDS011;7653;48.994;9.212;2023-05-10T07:30:49;1.70;;;1.60;;
15104;SDS011;7653;48.994;9.212;2023-05-10T07:33:15;2.73;;;1.50;;
15104;SDS011;7653;48.994;9.212;2023-05-10T07:35:41;3.23;;;1.20;;
15104;SDS011;7653;48.994;9.212;2023-05-10T07:38:07;4.00;;;1.30;;
15104;SDS011;7653;48.994;9.212;2023-05-10T07:40:33;1.67;;;1.30;;
15104;SDS011;7653;48.994;9.212;2023-05-10T07:42:58;5.80;;;1.30;;
15104;SDS011;7653;48.994;9.212;2023-05-10T07:45:26;1.83;;;1.33;;
15104;SDS011;7653;48.994;9.212;2023-05-10T07:47:52;3.07;;;1.47;;
15104;SDS011;7653;48.994;9.212;2023-05-10T07:50:17;2.40;;;1.37;;
15104;SDS011;7653;48.994;9.212;2023-05-10T07:52:43;1.23;;;1.10;;
15104;SDS011;7653;48.994;9.212;2023-05-10T07:55:09;2.00;;;0.60;;
15104;SDS011;7653;48.994;9.212;2023-05-10T07:57:35;2.97;;;0.90;;
15104;SDS011;7653;48.994;9.212;2023-05-10T08:00:01;0.93;;;0.90;;
15104;SDS011;7653;48.994;9.212;2023-05-10T08:02:27;1.37;;;0.93;;
15104;SDS011;7653;48.994;9.212;2023-05-10T08:04:53;0.80;;;0.80;;
15104;SDS011;7653;48.994;9.212;2023-05-10T08:07:19;0.77;;;0.53;;
15104;SDS011;7653;48.994;9.212;2023-05-10T08:09:44;1.63;;;0.90;;
15104;SDS011;7653;48.994;9.212;2023-05-10T08:12:10;1.27;;;0.70;;
15104;SDS011;7653;48.994;9.212;2023-05-10T08:14:35;0.77;;;0.70;;
15104;SDS011;7653;48.994;9.212;2023-05-10T08:17:04;0.90;;;0.90;;
15104;SDS011;7653;48.994;9.212;2023-05-10T08:19:30;1.73;;;0.77;;
15104;SDS011;7653;48.994;9.212;2023-05-10T08:21:56;0.63;;;0.57;;
15104;SDS011;7653;48.994;9.212;2023-05-10T08:24:22;0.93;;;0.40;;
15104;SDS011;7653;48.994;9.212;2023-05-10T08:26:48;0.37;;;0.37;;
15104;SDS011;7653;48.994;9.212;2023-05-10T08:29:13;0.90;;;0.90;;
15104;SDS011;7653;48.994;9.212;2023-05-10T08:31:40;1.33;;;0.70;;
15104;SDS011;7653;48.994;9.212;2023-05-10T08:34:05;0.70;;;0.70;;
15104;SDS011;7653;48.994;9.212;2023-05-10T08:36:31;1.47;;;0.80;;
15104;SDS011;7653;48.994;9.212;2023-05-10T08:38:57;0.90;;;0.67;;
15104;SDS011;7653;48.994;9.212;2023-05-10T08:41:23;0.60;;;0.60;;
15104;SDS011;7653;48.994;9.212;2023-05-10T08:43:51;0.97;;;0.57;;
15104;SDS011;7653;48.994;9.212;2023-05-10T08:46:17;1.90;;;0.57;;
15104;SDS011;7653;48.994;9.212;2023-05-10T08:48:45;0.30;;;0.30;;
15104;SDS011;7653;48.994;9.212;2023-05-10T08:51:19;1.00;;;0.57;;
15104;SDS011;7653;48.994;9.212;2023-05-10T08:53:48;1.07;;;0.67;;
15104;SDS011;7653;48.994;9.212;2023-05-10T08:56:15;0.30;;;0.20;;
15104;SDS011;7653;48.994;9.212;2023-05-10T08:58:41;0.77;;;0.60;;
15104;SDS011;7653;48.994;9.212;2023-05-10T09:01:07;0.43;;;0.20;;
15104;SDS011;7653;48.994;9.212;2023-05-10T09:03:34;0.60;;;0.60;;
15104;SDS011;7653;48.994;9.212;2023-05-10T09:06:03;0.60;;;0.60;;
15104;SDS011;7653;48.994;9.212;2023-05-10T09:08:30;0.40;;;0.40;;
15104;SDS011;7653;48.994;9.212;2023-05-10T09:10:56;0.80;;;0.60;;
15104;SDS011;7653;48.994;9.212;2023-05-10T09:13:23;0.40;;;0.40;;
15104;SDS011;7653;48.994;9.212;2023-05-10T09:15:49;0.97;;;0.60;;
15104;SDS011;7653;48.994;9.212;2023-05-10T09:18:16;0.83;;;0.50;;
15104;SDS011;7653;48.994;9.212;2023-05-10T09:20:41;2.30;;;0.73;;
15104;SDS011;7653;48.994;9.212;2023-05-10T09:23:07;3.27;;;0.77;;
15104;SDS011;7653;48.994;9.212;2023-05-10T09:25:33;1.00;;;0.60;;
15104;SDS011;7653;48.994;9.212;2023-05-10T09:27:59;1.27;;;0.77;;
15104;SDS011;7653;48.994;9.212;2023-05-10T09:30:29;0.33;;;0.33;;
15104;SDS011;7653;48.994;9.212;2023-05-10T09:32:55;0.90;;;0.30;;
15104;SDS011;7653;48.994;9.212;2023-05-10T09:35:24;2.53;;;0.70;;
15104;SDS011;7653;48.994;9.212;2023-05-10T09:37:51;0.53;;;0.47;;
15104;SDS011;7653;48.994;9.212;2023-05-10T09:40:21;0.60;;;0.60;;
15104;SDS011;7653;48.994;9.212;2023-05-10T09:42:57;0.73;;;0.70;;
15104;SDS011;7653;48.994;9.212;2023-05-10T09:45:24;1.67;;;0.67;;
15104;SDS011;7653;48.994;9.212;2023-05-10T09:47:52;1.17;;;0.77;;
15104;SDS011;7653;48.994;9.212;2023-05-10T09:50:18;0.77;;;0.73;;
15104;SDS011;7653;48.994;9.212;2023-05-10T09:55:11;1.00;;;0.60;;
15104;SDS011;7653;48.994;9.212;2023-05-10T09:57:37;0.70;;;0.67;;
15104;SDS011;7653;48.994;9.212;2023-05-10T10:00:03;1.90;;;0.63;;
15104;SDS011;7653;48.994;9.212;2023-05-10T10:02:30;0.70;;;0.60;;
15104;SDS011;7653;48.994;9.212;2023-05-10T10:04:56;0.60;;;0.60;;
15104;SDS011;7653;48.994;9.212;2023-05-10T10:07:23;1.20;;;0.60;;
15104;SDS011;7653;48.994;9.212;2023-05-10T10:09:50;1.43;;;0.40;;
15104;SDS011;7653;48.994;9.212;2023-05-10T10:12:16;0.20;;;0.20;;
15104;SDS011;7653;48.994;9.212;2023-05-10T10:14:42;0.30;;;0.30;;
15104;SDS011;7653;48.994;9.212;2023-05-10T10:17:08;0.50;;;0.50;;
15104;SDS011;7653;48.994;9.212;2023-05-10T10:19:34;1.07;;;0.60;;
15104;SDS011;7653;48.994;9.212;2023-05-10T10:22:00;0.50;;;0.50;;
15104;SDS011;7653;48.994;9.212;2023-05-10T10:24:26;0.43;;;0.30;;
15104;SDS011;7653;48.994;9.212;2023-05-10T10:26:52;0.33;;;0.33;;
15104;SDS011;7653;48.994;9.212;2023-05-10T10:29:39;0.80;;;0.50;;
15104;SDS011;7653;48.994;9.212;2023-05-10T10:35:27;0.83;;;0.70;;
15104;SDS011;7653;48.994;9.212;2023-05-10T10:37:56;0.80;;;0.50;;
15104;SDS011;7653;48.994;9.212;2023-05-10T10:42:59;1.07;;;0.70;;
15104;SDS011;7653;48.994;9.212;2023-05-10T10:48:35;1.70;;;0.57;;
15104;SDS011;7653;48.994;9.212;2023-05-10T10:51:00;1.07;;;0.43;;
15104;SDS011;7653;48.994;9.212;2023-05-10T10:53:27;0.77;;;0.50;;
15104;SDS011;7653;48.994;9.212;2023-05-10T10:56:02;1.43;;;0.63;;
15104;SDS011;7653;48.994;9.212;2023-05-10T10:58:38;0.27;;;0.27;;
15104;SDS011;7653;48.994;9.212;2023-05-10T11:03:41;0.20;;;0.20;;
15104;SDS011;7653;48.994;9.212;2023-05-10T11:06:28;0.23;;;0.23;;
15104;SDS011;7653;48.994;9.212;2023-05-10T11:08:56;0.87;;;0.53;;
15104;SDS011;7653;48.994;9.212;2023-05-10T11:11:22;1.30;;;0.40;;
15104;SDS011;7653;48.994;9.212;2023-05-10T11:13:48;2.43;;;0.60;;
15104;SDS011;7653;48.994;9.212;2023-05-10T11:16:15;2.57;;;0.50;;
15104;SDS011;7653;48.994;9.212;2023-05-10T11:18:51;1.30;;;0.40;;
15104;SDS011;7653;48.994;9.212;2023-05-10T11:21:31;0.50;;;0.40;;
15104;SDS011;7653;48.994;9.212;2023-05-10T11:23:59;2.87;;;0.63;;
15104;SDS011;7653;48.994;9.212;2023-05-10T11:26:29;1.87;;;0.63;;
15104;SDS011;7653;48.994;9.212;2023-05-10T11:28:56;1.33;;;0.60;;
15104;SDS011;7653;48.994;9.212;2023-05-10T11:31:23;1.87;;;0.73;;
15104;SDS011;7653;48.994;9.212;2023-05-10T11:33:52;0.60;;;0.60;;
15104;SDS011;7653;48.994;9.212;2023-05-10T11:36:29;0.87;;;0.60;;
15104;SDS011;7653;48.994;9.212;2023-05-10T11:38:58;1.00;;;0.90;;
15104;SDS011;7653;48.994;9.212;2023-05-10T11:41:24;1.50;;;0.80;;
15104;SDS011;7653;48.994;9.212;2023-05-10T11:43:52;1.03;;;0.83;;
15104;SDS011;7653;48.994;9.212;2023-05-10T11:46:19;0.20;;;0.20;;
15104;SDS011;7653;48.994;9.212;2023-05-10T11:48:50;2.27;;;1.00;;
15104;SDS011;7653;48.994;9.212;2023-05-10T11:51:24;0.30;;;0.30;;
15104;SDS011;7653;48.994;9.212;2023-05-10T11:53:51;3.20;;;0.63;;
15104;SDS011;7653;48.994;9.212;2023-05-10T11:56:18;1.70;;;0.77;;
15104;SDS011;7653;48.994;9.212;2023-05-10T11:58:45;1.43;;;0.57;;
15104;SDS011;7653;48.994;9.212;2023-05-10T12:01:16;1.33;;;0.50;;
15104;SDS011;7653;48.994;9.212;2023-05-10T12:03:42;0.80;;;0.70;;
15104;SDS011;7653;48.994;9.212;2023-05-10T12:06:08;2.10;;;1.00;;
15104;SDS011;7653;48.994;9.212;2023-05-10T12:08:33;0.77;;;0.63;;
15104;SDS011;7653;48.994;9.212;2023-05-10T12:11:06;0.97;;;0.90;;
15104;SDS011;7653;48.994;9.212;2023-05-10T12:13:38;1.73;;;0.60;;
15104;SDS011;7653;48.994;9.212;2023-05-10T12:18:50;0.57;;;0.47;;
15104;SDS011;7653;48.994;9.212;2023-05-10T12:21:21;2.80;;;1.20;;
15104;SDS011;7653;48.994;9.212;2023-05-10T12:23:48;0.60;;;0.50;;
15104;SDS011;7653;48.994;9.212;2023-05-10T12:26:18;1.37;;;1.17;;
15104;SDS011;7653;48.994;9.212;2023-05-10T12:28:46;0.97;;;0.90;;
15104;SDS011;7653;48.994;9.212;2023-05-10T12:31:12;6.20;;;1.70;;
15104;SDS011;7653;48.994;9.212;2023-05-10T12:33:38;3.80;;;1.10;;
15104;SDS011;7653;48.994;9.212;2023-05-10T12:36:11;0.63;;;0.63;;
15104;SDS011;7653;48.994;9.212;2023-05-10T12:38:39;2.20;;;0.93;;
15104;SDS011;7653;48.994;9.212;2023-05-10T12:41:08;2.43;;;1.20;;
15104;SDS011;7653;48.994;9.212;2023-05-10T12:43:38;1.00;;;0.77;;
15104;SDS011;7653;48.994;9.212;2023-05-10T12:46:08;1.93;;;1.10;;
15104;SDS011;7653;48.994;9.212;2023-05-10T12:48:39;1.60;;;0.60;;
15104;SDS011;7653;48.994;9.212;2023-05-10T12:51:06;3.07;;;1.10;;
15104;SDS011;7653;48.994;9.212;2023-05-10T12:53:38;2.40;;;1.00;;
15104;SDS011;7653;48.994;9.212;2023-05-10T12:56:04;1.87;;;1.07;;
15104;SDS011;7653;48.994;9.212;2023-05-10T12:58:30;0.77;;;0.63;;
15104;SDS011;7653;48.994;9.212;2023-05-10T13:00:55;1.90;;;0.70;;
15104;SDS011;7653;48.994;9.212;2023-05-10T13:03:22;1.63;;;0.60;;
15104;SDS011;7653;48.994;9.212;2023-05-10T13:05:48;3.90;;;1.00;;
15104;SDS011;7653;48.994;9.212;2023-05-10T13:08:14;0.47;;;0.47;;
15104;SDS011;7653;48.994;9.212;2023-05-10T13:10:39;1.00;;;0.80;;
15104;SDS011;7653;48.994;9.212;2023-05-10T13:13:05;1.67;;;0.87;;
15104;SDS011;7653;48.994;9.212;2023-05-10T13:15:32;2.43;;;0.80;;
15104;SDS011;7653;48.994;9.212;2023-05-10T13:17:58;2.33;;;0.90;;
15104;SDS011;7653;48.994;9.212;2023-05-10T13:20:24;0.80;;;0.80;;
15104;SDS011;7653;48.994;9.212;2023-05-10T13:22:50;2.13;;;1.03;;
15104;SDS011;7653;48.994;9.212;2023-05-10T13:25:15;0.67;;;0.67;;
15104;SDS011;7653;48.994;9.212;2023-05-10T13:27:41;2.23;;;0.87;;
15104;SDS011;7653;48.994;9.212;2023-05-10T13:30:07;3.03;;;1.10;;
15104;SDS011;7653;48.994;9.212;2023-05-10T13:32:34;2.23;;;1.10;;
15104;SDS011;7653;48.994;9.212;2023-05-10T13:35:00;1.33;;;0.70;;
15104;SDS011;7653;48.994;9.212;2023-05-10T13:37:26;2.80;;;0.53;;
15104;SDS011;7653;48.994;9.212;2023-05-10T13:39:51;1.37;;;0.70;;
15104;SDS011;7653;48.994;9.212;2023-05-10T13:42:17;1.80;;;0.70;;
15104;SDS011;7653;48.994;9.212;2023-05-10T13:44:43;3.30;;;1.00;;
15104;SDS011;7653;48.994;9.212;2023-05-10T13:47:09;1.23;;;0.80;;
15104;SDS011;7653;48.994;9.212;2023-05-10T13:49:35;0.97;;;0.70;;
15104;SDS011;7653;48.994;9.212;2023-05-10T13:52:01;0.30;;;0.30;;
15104;SDS011;7653;48.994;9.212;2023-05-10T13:54:31;2.03;;;0.90;;
15104;SDS011;7653;48.994;9.212;2023-05-10T13:57:00;1.60;;;0.90;;
15104;SDS011;7653;48.994;9.212;2023-05-10T13:59:26;1.43;;;0.90;;
15104;SDS011;7653;48.994;9.212;2023-05-10T14:01:51;2.40;;;0.97;;
15104;SDS011;7653;48.994;9.212;2023-05-10T14:04:17;1.60;;;0.70;;
15104;SDS011;7653;48.994;9.212;2023-05-10T14:06:43;1.67;;;0.80;;
15104;SDS011;7653;48.994;9.212;2023-05-10T14:09:08;1.53;;;0.50;;
15104;SDS011;7653;48.994;9.212;2023-05-10T14:11:34;1.63;;;0.60;;
15104;SDS011;7653;48.994;9.212;2023-05-10T14:14:00;2.00;;;0.80;;
15104;SDS011;7653;48.994;9.212;2023-05-10T14:16:26;1.20;;;0.70;;
15104;SDS011;7653;48.994;9.212;2023-05-10T14:18:52;1.70;;;0.70;;
15104;SDS011;7653;48.994;9.212;2023-05-10T14:21:18;1.87;;;0.60;;
15104;SDS011;7653;48.994;9.212;2023-05-10T14:23:43;1.10;;;0.70;;
15104;SDS011;7653;48.994;9.212;2023-05-10T14:26:09;2.00;;;0.83;;
15104;SDS011;7653;48.994;9.212;2023-05-10T14:28:35;0.83;;;0.53;;
15104;SDS011;7653;48.994;9.212;2023-05-10T14:31:00;0.63;;;0.53;;
15104;SDS011;7653;48.994;9.212;2023-05-10T14:33:26;1.43;;;0.80;;
15104;SDS011;7653;48.994;9.212;2023-05-10T14:35:53;1.07;;;0.70;;
15104;SDS011;7653;48.994;9.212;2023-05-10T14:38:21;2.23;;;0.73;;
15104;SDS011;7653;48.994;9.212;2023-05-10T14:40:47;1.40;;;0.77;;
15104;SDS011;7653;48.994;9.212;2023-05-10T14:43:12;3.13;;;0.90;;
15104;SDS011;7653;48.994;9.212;2023-05-10T14:45:38;0.87;;;0.80;;
15104;SDS011;7653;48.994;9.212;2023-05-10T14:48:03;4.57;;;0.80;;
15104;SDS011;7653;48.994;9.212;2023-05-10T14:50:29;1.07;;;0.77;;
15104;SDS011;7653;48.994;9.212;2023-05-10T14:55:22;1.70;;;0.60;;
15104;SDS011;7653;48.994;9.212;2023-05-10T14:57:48;1.70;;;0.70;;
15104;SDS011;7653;48.994;9.212;2023-05-10T15:00:15;0.87;;;0.60;;
15104;SDS011;7653;48.994;9.212;2023-05-10T15:02:41;0.73;;;0.67;;
15104;SDS011;7653;48.994;9.212;2023-05-10T15:05:06;1.83;;;0.93;;
15104;SDS011;7653;48.994;9.212;2023-05-10T15:07:32;1.67;;;0.63;;
15104;SDS011;7653;48.994;9.212;2023-05-10T15:09:58;1.60;;;0.60;;
15104;SDS011;7653;48.994;9.212;2023-05-10T15:12:24;1.07;;;0.60;;
15104;SDS011;7653;48.994;9.212;2023-05-10T15:14:49;1.40;;;0.90;;
15104;SDS011;7653;48.994;9.212;2023-05-10T15:17:15;1.03;;;0.83;;
15104;SDS011;7653;48.994;9.212;2023-05-10T15:19:41;1.13;;;0.80;;
15104;SDS011;7653;48.994;9.212;2023-05-10T15:22:07;1.00;;;0.80;;
15104;SDS011;7653;48.994;9.212;2023-05-10T15:24:33;1.70;;;0.43;;
15104;SDS011;7653;48.994;9.212;2023-05-10T15:26:59;0.60;;;0.60;;
15104;SDS011;7653;48.994;9.212;2023-05-10T15:29:25;1.00;;;0.90;;
15104;SDS011;7653;48.994;9.212;2023-05-10T15:31:51;0.70;;;0.70;;
15104;SDS011;7653;48.994;9.212;2023-05-10T15:34:17;1.20;;;1.10;;
15104;SDS011;7653;48.994;9.212;2023-05-10T15:36:43;0.80;;;0.80;;